createdAt,value
2023-04-20T00:02:19.729Z,108.05
2023-04-20T00:04:46.852Z,30.65
2023-04-20T00:07:13.602Z,73.28
2023-04-20T00:09:40.257Z,36.55
2023-04-20T00:12:07.048Z,89.40
2023-04-20T00:14:33.716Z,165.95
2023-04-20T00:17:00.538Z,40.22
2023-04-20T00:19:28.400Z,61.03
2023-04-20T00:21:55.165Z,70.47
2023-04-20T00:24:21.950Z,26.60
2023-04-20T00:26:48.730Z,40.40
2023-04-20T00:29:15.546Z,35.35
2023-04-20T00:31:42.488Z,40.90
2023-04-20T00:34:09.150Z,30.38
2023-04-20T00:36:35.962Z,52.25
2023-04-20T00:39:02.660Z,46.75
2023-04-20T00:41:29.427Z,31.20
2023-04-20T00:43:56.408Z,36.55
2023-04-20T00:46:23.626Z,30.15
2023-04-20T00:48:51.906Z,26.20
2023-04-20T00:51:21.293Z,22.33
2023-04-20T00:53:47.988Z,23.90
2023-04-20T00:56:15.249Z,19.55
2023-04-20T00:58:46.344Z,11.98
2023-04-20T01:01:17.689Z,14.00
2023-04-20T01:03:46.809Z,11.88
2023-04-20T01:06:14.772Z,11.77
2023-04-20T01:08:49.390Z,12.95
2023-04-20T01:11:16.195Z,12.57
2023-04-20T01:13:43.708Z,11.45
2023-04-20T01:16:12.035Z,10.93
2023-04-20T01:18:44.451Z,13.38
2023-04-20T01:21:15.293Z,9.02
2023-04-20T01:23:42.537Z,9.82
2023-04-20T01:26:11.529Z,11.30
2023-04-20T01:28:38.350Z,10.98
2023-04-20T01:31:07.058Z,10.68
2023-04-20T01:33:34.323Z,13.02
2023-04-20T01:36:01.306Z,10.50
2023-04-20T01:38:32.171Z,18.65
2023-04-20T01:41:06.095Z,18.88
2023-04-20T01:43:35.390Z,9.82
2023-04-20T01:46:02.320Z,11.23
2023-04-20T01:48:29.070Z,9.52
2023-04-20T01:50:55.741Z,10.63
2023-04-20T01:53:22.488Z,9.63
2023-04-20T01:55:49.794Z,9.38
2023-04-20T01:58:16.936Z,9.73
2023-04-20T02:00:44.663Z,11.57
2023-04-20T02:03:11.748Z,12.30
2023-04-20T02:05:38.687Z,12.23
2023-04-20T02:08:05.683Z,10.10
2023-04-20T02:10:32.588Z,11.38
2023-04-20T02:12:59.282Z,9.35
2023-04-20T02:15:26.057Z,10.25
2023-04-20T02:17:53.016Z,10.27
2023-04-20T02:20:20.079Z,9.75
2023-04-20T02:22:47.307Z,12.27
2023-04-20T02:25:14.377Z,12.52
2023-04-20T02:27:41.225Z,10.20
2023-04-20T02:30:08.414Z,16.65
2023-04-20T02:32:35.174Z,10.88
2023-04-20T02:35:03.989Z,13.70
2023-04-20T02:37:31.250Z,19.52
2023-04-20T02:39:58.186Z,49.03
2023-04-20T02:42:27.142Z,29.90
2023-04-20T02:44:56.090Z,14.00
2023-04-20T02:47:22.913Z,17.90
2023-04-20T02:49:51.702Z,26.30
2023-04-20T02:52:18.944Z,17.52
2023-04-20T02:54:45.877Z,15.52
2023-04-20T02:57:13.439Z,19.20
2023-04-20T02:59:40.682Z,20.80
2023-04-20T03:02:21.431Z,13.07
2023-04-20T03:04:48.532Z,9.18
2023-04-20T03:07:21.526Z,8.75
2023-04-20T03:09:49.504Z,8.00
2023-04-20T03:12:22.470Z,13.68
2023-04-20T03:15:18.731Z,9.25
2023-04-20T03:18:14.666Z,8.52
2023-04-20T03:20:41.477Z,9.15
2023-04-20T03:23:08.268Z,9.93
2023-04-20T03:25:36.163Z,15.10
2023-04-20T03:28:08.011Z,27.80
2023-04-20T03:30:36.895Z,17.35
2023-04-20T03:33:09.428Z,8.32
2023-04-20T03:35:39.324Z,11.23
2023-04-20T03:38:06.571Z,9.32
2023-04-20T03:40:33.234Z,15.77
2023-04-20T03:42:59.973Z,12.52
2023-04-20T03:45:28.303Z,24.42
2023-04-20T03:47:55.078Z,31.60
2023-04-20T03:50:22.282Z,15.60
2023-04-20T03:52:49.349Z,9.98
2023-04-20T03:55:16.106Z,9.80
2023-04-20T03:57:48.791Z,10.32
2023-04-20T04:00:16.489Z,9.65
2023-04-20T04:02:46.127Z,8.10
2023-04-20T04:05:17.276Z,10.68
2023-04-20T04:07:44.106Z,10.93
2023-04-20T04:10:13.188Z,9.75
2023-04-20T04:12:40.233Z,10.40
2023-04-20T04:15:08.132Z,11.25
2023-04-20T04:17:41.058Z,14.30
2023-04-20T04:20:09.158Z,10.70
2023-04-20T04:22:35.962Z,12.20
2023-04-20T04:25:23.299Z,11.57
2023-04-20T04:27:51.174Z,10.05
2023-04-20T04:30:19.901Z,10.93
2023-04-20T04:32:49.025Z,9.43
2023-04-20T04:35:16.715Z,8.98
2023-04-20T04:37:43.664Z,8.10
2023-04-20T04:40:11.072Z,9.07
2023-04-20T04:42:39.097Z,6.22
2023-04-20T04:45:08.045Z,7.97
2023-04-20T04:47:37.329Z,8.25
2023-04-20T04:50:09.297Z,7.57
2023-04-20T04:52:36.992Z,9.75
2023-04-20T04:55:08.227Z,11.45
2023-04-20T05:00:01.947Z,6.95
2023-04-20T05:02:28.982Z,5.55
2023-04-20T05:04:56.322Z,7.38
2023-04-20T05:07:23.149Z,7.13
2023-04-20T05:09:49.815Z,7.40
2023-04-20T05:12:16.609Z,7.78
2023-04-20T05:14:43.279Z,6.07
2023-04-20T05:17:09.997Z,6.35
2023-04-20T05:19:36.703Z,5.32
2023-04-20T05:22:03.681Z,8.55
2023-04-20T05:24:30.662Z,7.53
2023-04-20T05:26:57.339Z,8.85
2023-04-20T05:29:24.024Z,6.65
2023-04-20T05:31:50.744Z,7.57
2023-04-20T05:34:17.421Z,6.63
2023-04-20T05:36:44.249Z,7.25
2023-04-20T05:39:10.873Z,7.50
2023-04-20T05:41:37.588Z,6.00
2023-04-20T05:44:04.399Z,6.55
2023-04-20T05:46:31.286Z,6.38
2023-04-20T05:48:57.969Z,10.25
2023-04-20T05:51:28.974Z,7.43
2023-04-20T05:53:55.851Z,6.05
2023-04-20T05:56:22.655Z,6.95
2023-04-20T05:58:49.341Z,6.57
2023-04-20T06:01:16.028Z,6.50
2023-04-20T06:03:43.095Z,3.80
2023-04-20T06:06:09.928Z,3.55
2023-04-20T06:08:36.615Z,3.95
2023-04-20T06:11:03.307Z,6.93
2023-04-20T06:13:29.979Z,5.60
2023-04-20T06:15:56.726Z,5.80
2023-04-20T06:18:23.566Z,5.80
2023-04-20T06:20:50.281Z,6.20
2023-04-20T06:23:17.016Z,9.85
2023-04-20T06:25:48.377Z,5.35
2023-04-20T06:30:42.376Z,5.40
2023-04-20T06:33:11.035Z,4.95
2023-04-20T06:35:39.900Z,6.45
2023-04-20T06:38:06.583Z,5.53
2023-04-20T06:40:33.865Z,7.40
2023-04-20T06:43:00.679Z,4.95
2023-04-20T06:45:28.490Z,6.10
2023-04-20T06:47:55.274Z,7.07
2023-04-20T06:50:22.350Z,8.75
2023-04-20T06:52:49.216Z,6.15
2023-04-20T06:55:16.017Z,7.40
2023-04-20T06:57:43.938Z,7.25
2023-04-20T07:00:11.706Z,5.90
2023-04-20T07:02:49.069Z,5.70
2023-04-20T07:05:16.560Z,7.68
2023-04-20T07:07:43.701Z,6.18
2023-04-20T07:10:12.682Z,5.28
2023-04-20T07:12:42.667Z,5.35
2023-04-20T07:15:10.600Z,4.93
2023-04-20T07:17:37.383Z,5.93
2023-04-20T07:20:08.897Z,7.28
2023-04-20T07:22:36.967Z,4.75
2023-04-20T07:25:06.128Z,7.63
2023-04-20T07:27:40.890Z,4.63
2023-04-20T07:30:09.107Z,8.50
2023-04-20T07:32:36.666Z,9.73
2023-04-20T07:35:04.121Z,5.95
2023-04-20T07:37:32.096Z,4.28
2023-04-20T07:39:58.882Z,8.98
2023-04-20T07:42:25.856Z,3.97
2023-04-20T07:44:52.763Z,3.50
2023-04-20T07:47:19.445Z,6.82
2023-04-20T07:49:46.632Z,7.07
2023-04-20T07:52:16.828Z,4.70
2023-04-20T07:54:45.140Z,5.95
2023-04-20T07:57:12.315Z,10.82
2023-04-20T07:59:40.450Z,4.57
2023-04-20T08:02:08.114Z,7.40
2023-04-20T08:04:38.301Z,6.05
2023-04-20T08:07:05.449Z,5.07
2023-04-20T08:09:32.148Z,5.57
2023-04-20T08:11:59.012Z,9.20
2023-04-20T08:14:25.718Z,4.47
2023-04-20T08:16:52.553Z,7.18
2023-04-20T08:19:19.287Z,4.88
2023-04-20T08:21:46.064Z,4.63
2023-04-20T08:24:13.614Z,10.73
2023-04-20T08:26:40.831Z,6.00
2023-04-20T08:29:07.533Z,6.25
2023-04-20T08:31:34.378Z,4.40
2023-04-20T08:34:01.257Z,7.68
2023-04-20T08:36:28.286Z,4.43
2023-04-20T08:39:30.416Z,5.45
2023-04-20T08:41:57.481Z,5.72
2023-04-20T08:44:25.018Z,4.97
2023-04-20T08:46:51.961Z,4.38
2023-04-20T08:49:19.719Z,6.68
2023-04-20T08:51:47.560Z,7.05
2023-04-20T08:54:14.944Z,7.60
2023-04-20T08:56:45.168Z,4.28
2023-04-20T08:59:14.218Z,5.10
2023-04-20T09:01:41.987Z,3.67
2023-04-20T09:04:27.543Z,3.17
2023-04-20T09:06:55.801Z,2.53
2023-04-20T09:09:24.067Z,2.75
2023-04-20T09:12:22.154Z,2.55
2023-04-20T09:14:49.439Z,3.03
2023-04-20T09:17:18.050Z,2.58
2023-04-20T09:19:46.592Z,2.10
2023-04-20T09:22:13.520Z,4.60
2023-04-20T09:24:43.155Z,2.28
2023-04-20T09:27:17.274Z,2.40
2023-04-20T09:29:44.805Z,3.42
2023-04-20T09:32:30.722Z,3.00
2023-04-20T09:34:57.559Z,4.95
2023-04-20T09:37:25.590Z,2.95
2023-04-20T09:39:58.157Z,4.50
2023-04-20T09:42:28.033Z,2.80
2023-04-20T09:44:55.869Z,2.13
2023-04-20T09:47:22.760Z,3.00
2023-04-20T09:49:50.192Z,4.70
2023-04-20T09:52:21.352Z,3.97
2023-04-20T09:54:49.263Z,4.55
2023-04-20T09:57:16.139Z,7.10
2023-04-20T09:59:44.130Z,8.60
2023-04-20T10:02:13.213Z,9.55
2023-04-20T10:04:56.072Z,8.27
2023-04-20T10:07:27.846Z,7.75
2023-04-20T10:10:09.070Z,9.65
2023-04-20T10:15:15.323Z,8.93
2023-04-20T10:17:42.487Z,10.65
2023-04-20T10:20:26.799Z,9.20
2023-04-20T10:22:54.844Z,5.85
2023-04-20T10:25:24.854Z,5.95
2023-04-20T10:27:59.042Z,6.55
2023-04-20T10:30:27.823Z,6.68
2023-04-20T10:33:07.847Z,6.13
2023-04-20T10:36:00.954Z,6.03
2023-04-20T10:38:36.865Z,6.90
2023-04-20T10:41:21.623Z,5.53
2023-04-20T10:43:48.387Z,6.18
2023-04-20T10:46:15.294Z,6.07
2023-04-20T10:49:01.804Z,6.82
2023-04-20T10:51:28.675Z,4.50
2023-04-20T10:54:08.725Z,6.13
2023-04-20T10:56:50.238Z,4.80
2023-04-20T11:01:46.716Z,5.97
2023-04-20T11:04:17.824Z,6.05
2023-04-20T11:06:48.530Z,5.03
2023-04-20T11:09:28.888Z,5.68
2023-04-20T11:12:04.138Z,8.30
2023-04-20T11:14:40.199Z,7.07
2023-04-20T11:17:07.185Z,7.60
2023-04-20T11:19:36.287Z,7.30
2023-04-20T11:22:04.338Z,6.72
2023-04-20T11:24:34.042Z,6.30
2023-04-20T11:27:02.276Z,6.90
2023-04-20T11:29:30.221Z,10.45
2023-04-20T11:31:59.161Z,7.13
2023-04-20T11:34:26.972Z,8.75
2023-04-20T11:36:56.782Z,7.82
2023-04-20T11:39:32.361Z,7.20
2023-04-20T11:42:00.015Z,7.70
2023-04-20T11:44:27.455Z,5.30
2023-04-20T11:46:57.077Z,5.47
2023-04-20T11:49:25.035Z,5.95
2023-04-20T11:51:51.872Z,9.15
2023-04-20T11:54:22.127Z,6.10
2023-04-20T11:56:48.979Z,5.93
2023-04-20T11:59:17.331Z,6.57
2023-04-20T12:01:44.264Z,6.38
2023-04-20T12:04:11.170Z,5.07
2023-04-20T12:06:38.070Z,7.35
2023-04-20T12:09:06.520Z,5.05
2023-04-20T12:11:33.308Z,6.30
2023-04-20T12:14:00.381Z,3.78
2023-04-20T12:16:27.365Z,5.93
2023-04-20T12:18:54.397Z,3.92
2023-04-20T12:21:21.365Z,6.65
2023-04-20T12:23:49.677Z,6.30
2023-04-20T12:26:16.804Z,5.72
2023-04-20T12:28:45.198Z,4.95
2023-04-20T12:31:12.264Z,4.38
2023-04-20T12:33:39.130Z,6.25
2023-04-20T12:36:06.254Z,5.43
2023-04-20T12:38:33.004Z,6.80
2023-04-20T12:40:59.746Z,7.57
2023-04-20T12:43:26.950Z,6.15
2023-04-20T12:45:53.720Z,5.15
2023-04-20T12:48:20.689Z,6.85
2023-04-20T12:50:47.513Z,4.85
2023-04-20T12:53:14.282Z,6.45
2023-04-20T12:55:41.084Z,4.03
2023-04-20T12:58:07.756Z,5.63
2023-04-20T13:00:34.717Z,4.78
2023-04-20T13:03:01.959Z,5.25
2023-04-20T13:05:29.263Z,5.22
2023-04-20T13:07:56.219Z,6.10
2023-04-20T13:10:22.975Z,4.38
2023-04-20T13:12:51.766Z,3.75
2023-04-20T13:15:31.920Z,3.60
2023-04-20T13:18:05.879Z,3.45
2023-04-20T13:20:32.745Z,4.85
2023-04-20T13:23:01.413Z,4.75
2023-04-20T13:25:30.107Z,8.15
2023-04-20T13:27:57.001Z,2.13
2023-04-20T13:30:24.793Z,6.63
2023-04-20T13:32:51.891Z,5.00
2023-04-20T13:35:18.803Z,5.13
2023-04-20T13:37:45.802Z,4.72
2023-04-20T13:40:12.793Z,3.70
2023-04-20T13:42:39.534Z,5.22
2023-04-20T13:45:06.839Z,6.10
2023-04-20T13:47:33.705Z,3.47
2023-04-20T13:50:02.387Z,4.85
2023-04-20T13:52:29.384Z,4.05
2023-04-20T13:54:56.193Z,4.82
2023-04-20T13:57:22.993Z,4.05
2023-04-20T13:59:50.194Z,5.95
2023-04-20T14:02:17.105Z,5.47
2023-04-20T14:04:43.917Z,5.45
2023-04-20T14:07:10.714Z,3.22
2023-04-20T14:09:37.433Z,5.30
2023-04-20T14:12:04.338Z,3.78
2023-04-20T14:14:31.042Z,4.35
2023-04-20T14:16:57.835Z,4.68
2023-04-20T14:19:24.589Z,2.35
2023-04-20T14:21:51.706Z,5.63
2023-04-20T14:24:18.810Z,3.60
2023-04-20T14:26:45.725Z,6.20
2023-04-20T14:29:12.461Z,4.10
2023-04-20T14:31:39.282Z,5.82
2023-04-20T14:34:06.295Z,2.88
2023-04-20T14:36:33.362Z,4.35
2023-04-20T14:39:00.066Z,5.20
2023-04-20T14:41:26.968Z,5.25
2023-04-20T14:43:53.635Z,3.50
2023-04-20T14:46:20.824Z,4.65
2023-04-20T14:48:48.321Z,3.85
2023-04-20T14:51:16.258Z,7.45
2023-04-20T14:53:42.988Z,8.02
2023-04-20T14:56:09.705Z,3.53
2023-04-20T14:58:37.411Z,4.65
2023-04-20T15:01:04.900Z,5.25
2023-04-20T15:03:31.791Z,3.75
2023-04-20T15:06:00.868Z,7.97
2023-04-20T15:08:27.934Z,7.38
2023-04-20T15:10:58.149Z,3.03
2023-04-20T15:13:25.936Z,2.70
2023-04-20T15:15:55.074Z,6.18
2023-04-20T15:18:22.609Z,6.88
2023-04-20T15:20:52.005Z,5.97
2023-04-20T15:23:18.906Z,7.78
2023-04-20T15:25:45.727Z,4.40
2023-04-20T15:28:12.881Z,5.97
2023-04-20T15:30:39.653Z,5.72
2023-04-20T15:33:06.628Z,3.63
2023-04-20T15:35:34.840Z,4.55
2023-04-20T15:38:01.696Z,2.92
2023-04-20T15:40:28.445Z,4.78
2023-04-20T15:42:55.815Z,7.25
2023-04-20T15:45:23.122Z,4.30
2023-04-20T15:47:51.360Z,4.57
2023-04-20T15:50:18.302Z,3.95
2023-04-20T15:52:45.866Z,3.33
2023-04-20T15:55:12.767Z,3.55
2023-04-20T15:57:39.595Z,2.95
2023-04-20T16:00:09.730Z,3.80
2023-04-20T16:02:40.626Z,4.15
2023-04-20T16:05:09.057Z,4.40
2023-04-20T16:07:35.732Z,3.70
2023-04-20T16:10:03.079Z,4.45
2023-04-20T16:12:29.949Z,3.90
2023-04-20T16:14:57.332Z,3.22
2023-04-20T16:17:24.223Z,4.13
2023-04-20T16:19:51.182Z,4.95
2023-04-20T16:22:17.999Z,5.18
2023-04-20T16:24:44.994Z,4.38
2023-04-20T16:27:11.857Z,3.35
2023-04-20T16:29:38.898Z,5.82
2023-04-20T16:32:06.476Z,3.97
2023-04-20T16:34:33.265Z,4.15
2023-04-20T16:37:00.067Z,3.17
2023-04-20T16:39:26.779Z,5.43
2023-04-20T16:41:54.033Z,6.35
2023-04-20T16:44:23.380Z,8.32
2023-04-20T16:46:51.160Z,2.13
2023-04-20T16:49:18.382Z,5.85
2023-04-20T16:51:45.184Z,5.45
2023-04-20T16:54:12.922Z,4.00
2023-04-20T16:56:40.717Z,4.53
2023-04-20T16:59:08.013Z,8.25
2023-04-20T17:01:34.888Z,6.25
2023-04-20T17:04:02.025Z,4.63
2023-04-20T17:06:29.203Z,4.70
2023-04-20T17:08:58.194Z,4.40
2023-04-20T17:11:25.500Z,3.78
2023-04-20T17:13:52.476Z,5.50
2023-04-20T17:16:20.122Z,4.90
2023-04-20T17:18:46.983Z,3.15
2023-04-20T17:21:13.718Z,3.03
2023-04-20T17:23:41.232Z,4.70
2023-04-20T17:26:08.159Z,2.95
2023-04-20T17:28:34.892Z,6.72
2023-04-20T17:31:01.720Z,4.72
2023-04-20T17:33:28.381Z,4.32
2023-04-20T17:35:56.981Z,5.38
2023-04-20T17:38:24.264Z,3.45
2023-04-20T17:40:50.995Z,4.13
2023-04-20T17:43:17.698Z,5.35
2023-04-20T17:45:44.549Z,6.60
2023-04-20T17:48:11.363Z,3.58
2023-04-20T17:50:38.015Z,4.85
2023-04-20T17:53:07.020Z,4.55
2023-04-20T17:55:34.860Z,4.00
2023-04-20T17:58:01.844Z,4.03
2023-04-20T18:00:28.492Z,8.05
2023-04-20T18:02:55.400Z,4.65
2023-04-20T18:05:22.349Z,7.88
2023-04-20T18:07:49.097Z,5.13
2023-04-20T18:10:16.098Z,3.08
2023-04-20T18:12:43.576Z,5.72
2023-04-20T18:15:10.769Z,3.67
2023-04-20T18:17:37.907Z,4.22
2023-04-20T18:20:05.916Z,2.72
2023-04-20T18:22:33.133Z,3.60
2023-04-20T18:24:59.802Z,5.22
2023-04-20T18:27:26.513Z,9.15
2023-04-20T18:29:53.676Z,6.28
2023-04-20T18:32:20.979Z,6.15
2023-04-20T18:34:47.842Z,6.28
2023-04-20T18:37:14.971Z,4.63
2023-04-20T18:39:41.715Z,6.95
2023-04-20T18:42:08.442Z,4.85
2023-04-20T18:44:35.288Z,4.90
2023-04-20T18:47:02.995Z,3.40
2023-04-20T18:49:30.824Z,2.95
2023-04-20T18:51:57.657Z,4.20
2023-04-20T18:54:24.370Z,3.22
2023-04-20T18:56:51.201Z,3.47
2023-04-20T18:59:18.574Z,7.15
2023-04-20T19:01:45.315Z,6.50
2023-04-20T19:04:12.190Z,4.55
2023-04-20T19:06:39.092Z,5.03
2023-04-20T19:09:07.992Z,4.22
2023-04-20T19:11:35.464Z,3.50
2023-04-20T19:14:02.113Z,7.40
2023-04-20T19:16:33.550Z,6.03
2023-04-20T19:19:00.872Z,5.90
2023-04-20T19:21:27.568Z,3.50
2023-04-20T19:23:54.265Z,11.05
2023-04-20T19:26:21.365Z,4.38
2023-04-20T19:28:48.146Z,6.97
2023-04-20T19:31:16.007Z,5.38
2023-04-20T19:33:42.937Z,9.00
2023-04-20T19:36:10.100Z,6.03
2023-04-20T19:38:38.637Z,9.15
2023-04-20T19:41:06.442Z,4.30
2023-04-20T19:43:33.189Z,7.57
2023-04-20T19:46:00.001Z,5.82
2023-04-20T19:48:26.821Z,4.93
2023-04-20T19:50:56.647Z,4.70
2023-04-20T19:53:25.155Z,8.93
2023-04-20T19:55:52.077Z,10.15
2023-04-20T19:58:19.216Z,9.45
2023-04-20T20:00:45.921Z,11.73
2023-04-20T20:03:14.949Z,8.05
2023-04-20T20:05:43.010Z,6.25
2023-04-20T20:08:10.186Z,7.22
2023-04-20T20:10:36.826Z,5.78
2023-04-20T20:13:06.120Z,3.97
2023-04-20T20:15:32.978Z,5.68
2023-04-20T20:17:59.856Z,7.28
2023-04-20T20:20:32.402Z,6.57
2023-04-20T20:23:02.151Z,7.18
2023-04-20T20:25:28.936Z,3.90
2023-04-20T20:27:56.048Z,9.40
2023-04-20T20:30:25.908Z,7.50
2023-04-20T20:32:58.793Z,7.45
2023-04-20T20:35:33.325Z,6.00
2023-04-20T20:38:00.338Z,8.70
2023-04-20T20:40:27.576Z,8.60
2023-04-20T20:42:56.362Z,6.95
2023-04-20T20:45:23.442Z,17.98
2023-04-20T20:47:50.232Z,8.57
2023-04-20T20:50:16.988Z,9.52
2023-04-20T20:52:43.721Z,9.32
2023-04-20T20:55:10.687Z,6.55
2023-04-20T20:57:37.713Z,7.78
2023-04-20T21:00:10.155Z,8.65
2023-04-20T21:02:37.424Z,8.00
2023-04-20T21:05:05.409Z,5.28
2023-04-20T21:07:32.177Z,9.55
2023-04-20T21:09:58.902Z,5.88
2023-04-20T21:12:25.811Z,7.75
2023-04-20T21:14:52.630Z,12.27
2023-04-20T21:17:19.933Z,10.25
2023-04-20T21:19:48.989Z,7.82
2023-04-20T21:22:15.699Z,8.50
2023-04-20T21:24:42.490Z,7.47
2023-04-20T21:27:09.268Z,6.38
2023-04-20T21:29:36.039Z,4.18
2023-04-20T21:32:02.813Z,5.10
2023-04-20T21:34:29.746Z,9.20
2023-04-20T21:37:03.476Z,10.85
2023-04-20T21:39:32.738Z,10.27
2023-04-20T21:41:59.855Z,8.57
2023-04-20T21:44:26.717Z,7.65
2023-04-20T21:46:53.497Z,10.50
2023-04-20T21:49:20.488Z,9.43
2023-04-20T21:51:47.280Z,10.68
2023-04-20T21:54:14.079Z,12.82
2023-04-20T21:56:40.867Z,10.68
2023-04-20T21:59:07.553Z,12.32
2023-04-20T22:01:34.275Z,11.35
2023-04-20T22:04:01.833Z,12.70
2023-04-20T22:06:28.859Z,7.22
2023-04-20T22:08:56.431Z,9.50
2023-04-20T22:11:23.163Z,9.63
2023-04-20T22:13:50.355Z,12.60
2023-04-20T22:16:18.066Z,12.23
2023-04-20T22:18:44.775Z,10.55
2023-04-20T22:21:11.428Z,9.38
2023-04-20T22:23:38.150Z,11.23
2023-04-20T22:26:04.993Z,12.95
2023-04-20T22:28:31.704Z,10.43
2023-04-20T22:30:58.526Z,11.45
2023-04-20T22:33:25.323Z,10.73
2023-04-20T22:35:52.903Z,12.70
2023-04-20T22:38:19.717Z,12.52
2023-04-20T22:40:46.481Z,11.23
2023-04-20T22:43:13.197Z,14.00
2023-04-20T22:45:40.029Z,11.13
2023-04-20T22:48:06.744Z,13.73
2023-04-20T22:50:34.928Z,9.02
2023-04-20T22:53:01.650Z,14.05
2023-04-20T22:55:28.353Z,9.73
2023-04-20T22:57:55.027Z,10.77
2023-04-20T23:00:21.995Z,15.07
2023-04-20T23:02:48.909Z,10.35
2023-04-20T23:05:20.182Z,11.10
2023-04-20T23:07:47.285Z,11.77
2023-04-20T23:10:17.074Z,10.30
2023-04-20T23:12:44.884Z,7.78
2023-04-20T23:15:12.124Z,11.25
2023-04-20T23:17:39.421Z,11.77
2023-04-20T23:20:10.443Z,12.48
2023-04-20T23:22:37.293Z,15.00
2023-04-20T23:25:04.036Z,13.50
2023-04-20T23:27:30.823Z,13.88
2023-04-20T23:29:57.479Z,11.38
2023-04-20T23:32:24.673Z,14.57
2023-04-20T23:34:51.358Z,12.80
2023-04-20T23:37:18.160Z,12.68
2023-04-20T23:39:44.845Z,10.45
2023-04-20T23:42:11.552Z,11.32
2023-04-20T23:44:38.245Z,6.80
2023-04-20T23:47:04.988Z,8.38
2023-04-20T23:49:31.639Z,13.18
2023-04-20T23:51:58.362Z,12.73
2023-04-20T23:54:25.032Z,15.10
2023-04-20T23:56:51.735Z,15.30
2023-04-20T23:59:18.495Z,13.93
